createdAt,value
2018-03-22T00:01:40.980Z,71.64
2018-03-22T00:04:09.082Z,71.76
2018-03-22T00:06:37.185Z,71.18
2018-03-22T00:09:05.280Z,71.01
2018-03-22T00:11:33.390Z,70.71
2018-03-22T00:14:01.489Z,70.43
2018-03-22T00:16:29.574Z,69.95
2018-03-22T00:18:57.679Z,69.81
2018-03-22T00:21:25.845Z,69.81
2018-03-22T00:23:53.943Z,69.76
2018-03-22T00:26:22.041Z,69.58
2018-03-22T00:28:55.111Z,69.17
2018-03-22T00:31:23.214Z,68.69
2018-03-22T00:36:26.960Z,68.41
2018-03-22T00:38:55.066Z,68.40
2018-03-22T00:41:23.191Z,68.26
2018-03-22T00:43:51.297Z,68.16
2018-03-22T00:59:19.430Z,68.90
2018-03-22T01:01:47.528Z,69.04
2018-03-22T01:04:15.630Z,69.39
2018-03-22T01:06:43.748Z,69.59
2018-03-22T01:22:11.883Z,69.20
2018-03-22T01:24:40.288Z,69.01
2018-03-22T01:27:08.623Z,68.88
2018-03-22T01:29:36.733Z,68.52
2018-03-22T01:32:04.845Z,68.04
2018-03-22T01:34:38.481Z,67.78
2018-03-22T01:37:06.597Z,67.55
2018-03-22T01:39:34.691Z,67.34
2018-03-22T01:42:02.804Z,67.05
2018-03-22T01:44:30.913Z,66.44
2018-03-22T01:46:59.011Z,66.20
2018-03-22T01:49:27.147Z,66.29
2018-03-22T01:51:55.217Z,66.12
2018-03-22T01:54:23.353Z,65.88
2018-03-22T01:56:51.447Z,66.02
2018-03-22T01:59:20.471Z,66.29
2018-03-22T02:01:48.621Z,66.07
2018-03-22T02:04:16.722Z,66.05
2018-03-22T02:06:44.835Z,65.85
2018-03-22T02:09:12.943Z,65.62
2018-03-22T02:11:41.855Z,65.93
2018-03-22T02:14:09.957Z,66.26
2018-03-22T02:16:38.055Z,66.64
2018-03-22T02:19:06.187Z,67.20
2018-03-22T02:21:34.294Z,67.56
2018-03-22T02:24:02.400Z,67.83
2018-03-22T02:26:30.543Z,68.30
2018-03-22T02:28:58.688Z,68.99
2018-03-22T02:31:26.794Z,69.54
2018-03-22T02:33:54.890Z,69.77
2018-03-22T02:36:23.000Z,69.83
2018-03-22T02:38:51.251Z,69.74
2018-03-22T02:41:19.368Z,69.90
2018-03-22T02:43:47.540Z,69.54
2018-03-22T02:46:15.630Z,69.96
2018-03-22T02:48:43.743Z,69.97
2018-03-22T02:51:11.988Z,69.90
2018-03-22T02:53:40.046Z,70.17
2018-03-22T02:56:08.156Z,70.50
2018-03-22T02:58:36.593Z,70.60
2018-03-22T03:01:04.698Z,70.41
2018-03-22T03:03:32.797Z,70.65
2018-03-22T03:06:00.915Z,70.97
2018-03-22T03:08:29.014Z,70.87
2018-03-22T03:10:57.413Z,70.59
2018-03-22T03:13:25.524Z,70.63
2018-03-22T03:15:53.613Z,70.61
2018-03-22T03:18:22.449Z,71.10
2018-03-22T03:20:50.566Z,71.48
2018-03-22T03:23:18.706Z,71.81
2018-03-22T03:25:47.689Z,72.51
2018-03-22T03:28:15.810Z,73.01
2018-03-22T03:30:43.916Z,73.76
2018-03-22T03:33:12.031Z,74.47
2018-03-22T03:35:40.195Z,74.97
2018-03-22T03:38:08.833Z,75.57
2018-03-22T03:40:36.926Z,76.10
2018-03-22T03:43:05.063Z,76.58
2018-03-22T03:45:33.151Z,76.99
2018-03-22T03:48:02.006Z,77.35
2018-03-22T03:50:30.113Z,77.60
2018-03-22T03:52:58.224Z,77.97
2018-03-22T03:55:26.335Z,78.26
2018-03-22T03:57:55.385Z,78.33
2018-03-22T04:00:23.478Z,78.43
2018-03-22T04:02:51.583Z,78.77
2018-03-22T04:05:19.697Z,78.91
2018-03-22T04:07:47.794Z,78.90
2018-03-22T04:10:15.899Z,78.83
2018-03-22T04:12:44.008Z,78.85
2018-03-22T04:15:12.107Z,78.47
2018-03-22T04:17:40.200Z,78.57
2018-03-22T04:20:08.301Z,78.59
2018-03-22T04:22:37.365Z,78.59
2018-03-22T04:25:05.445Z,78.52
2018-03-22T04:27:33.583Z,78.55
2018-03-22T04:30:01.673Z,78.74
2018-03-22T04:32:30.479Z,79.17
2018-03-22T04:34:58.577Z,79.61
2018-03-22T04:37:26.705Z,79.92
2018-03-22T04:39:54.789Z,80.14
2018-03-22T04:42:22.891Z,80.49
2018-03-22T04:44:50.998Z,80.74
2018-03-22T04:47:20.350Z,81.06
2018-03-22T04:49:48.454Z,81.19
2018-03-22T04:52:16.563Z,81.26
2018-03-22T04:54:45.295Z,81.29
2018-03-22T04:57:13.393Z,81.37
2018-03-22T04:59:41.549Z,81.51
2018-03-22T05:02:09.675Z,81.63
2018-03-22T05:04:37.773Z,81.69
2018-03-22T05:07:05.866Z,81.62
2018-03-22T05:09:33.967Z,81.66
2018-03-22T05:12:02.942Z,81.82
2018-03-22T05:14:31.083Z,81.87
2018-03-22T05:16:59.161Z,81.99
2018-03-22T05:19:27.246Z,82.02
2018-03-22T05:21:55.367Z,82.09
2018-03-22T05:24:23.448Z,82.06
2018-03-22T05:26:51.539Z,81.89
2018-03-22T05:29:19.644Z,81.77
2018-03-22T05:31:47.741Z,81.73
2018-03-22T05:34:15.832Z,81.60
2018-03-22T05:49:43.950Z,81.93
2018-03-22T05:52:12.085Z,81.95
2018-03-22T05:54:40.162Z,82.03
2018-03-22T05:57:08.279Z,82.03
2018-03-22T05:59:36.386Z,82.14
2018-03-22T06:02:04.487Z,82.08
2018-03-22T06:04:32.689Z,82.15
2018-03-22T06:07:00.761Z,82.31
2018-03-22T06:09:28.860Z,82.44
2018-03-22T06:11:57.003Z,82.46
2018-03-22T06:14:25.104Z,82.44
2018-03-22T06:16:53.179Z,82.58
2018-03-22T06:19:21.610Z,82.75
2018-03-22T06:21:49.935Z,82.89
2018-03-22T06:24:18.038Z,82.98
2018-03-22T06:26:46.155Z,83.09
2018-03-22T06:29:14.250Z,83.21
2018-03-22T06:31:42.345Z,83.34
2018-03-22T06:34:10.491Z,83.50
2018-03-22T06:36:38.592Z,83.80
2018-03-22T06:39:06.702Z,83.89
2018-03-22T06:41:34.840Z,83.91
2018-03-22T06:44:02.940Z,83.87
2018-03-22T06:46:31.038Z,84.03
2018-03-22T06:48:59.141Z,84.06
2018-03-22T06:51:27.266Z,84.22
2018-03-22T06:53:55.359Z,84.30
2018-03-22T06:56:23.453Z,84.41
2018-03-22T06:58:52.393Z,84.37
2018-03-22T07:01:20.565Z,84.24
2018-03-22T07:03:50.647Z,84.33
2018-03-22T07:06:18.775Z,84.41
2018-03-22T07:08:46.874Z,84.49
2018-03-22T07:11:14.970Z,84.63
2018-03-22T07:13:43.071Z,84.83
2018-03-22T07:16:11.185Z,84.91
2018-03-22T07:18:39.285Z,85.02
2018-03-22T07:21:07.408Z,84.97
2018-03-22T07:23:35.504Z,84.98
2018-03-22T07:39:04.261Z,85.79
2018-03-22T07:41:32.361Z,85.89
2018-03-22T07:44:06.136Z,85.94
2018-03-22T07:46:34.234Z,85.97
2018-03-22T07:49:02.343Z,85.97
2018-03-22T07:51:31.342Z,85.96
2018-03-22T07:53:59.463Z,85.92
2018-03-22T07:56:32.519Z,85.91
2018-03-22T07:59:00.713Z,85.90
2018-03-22T08:01:28.790Z,85.92
2018-03-22T08:03:56.896Z,86.07
2018-03-22T08:06:25.037Z,86.16
2018-03-22T08:08:53.139Z,86.30
2018-03-22T08:11:21.271Z,86.36
2018-03-22T08:13:49.390Z,86.38
2018-03-22T08:16:17.710Z,86.51
2018-03-22T08:18:45.815Z,86.53
2018-03-22T08:21:13.917Z,86.57
2018-03-22T08:23:42.066Z,86.53
2018-03-22T08:26:10.175Z,86.51
2018-03-22T08:28:38.252Z,86.51
2018-03-22T08:31:06.368Z,86.63
2018-03-22T08:33:34.460Z,86.67
2018-03-22T08:36:02.577Z,86.69
2018-03-22T08:38:30.687Z,86.79
2018-03-22T08:41:00.086Z,86.81
2018-03-22T08:43:29.059Z,86.84
2018-03-22T08:45:57.188Z,86.89
2018-03-22T08:48:25.293Z,87.00
2018-03-22T08:50:53.375Z,87.07
2018-03-22T08:53:21.488Z,87.02
2018-03-22T08:55:49.573Z,87.01
2018-03-22T08:58:17.688Z,87.03
2018-03-22T09:00:45.822Z,87.14
2018-03-22T09:16:13.976Z,87.60
2018-03-22T09:18:42.062Z,87.73
2018-03-22T09:21:10.163Z,87.83
2018-03-22T09:23:38.328Z,87.86
2018-03-22T09:26:06.432Z,87.89
2018-03-22T09:28:34.541Z,87.86
2018-03-22T09:31:02.655Z,87.85
2018-03-22T09:33:30.763Z,87.81
2018-03-22T09:35:59.073Z,87.79
2018-03-22T09:38:27.184Z,87.68
2018-03-22T09:40:56.039Z,87.65
2018-03-22T09:43:24.147Z,87.57
2018-03-22T09:45:52.487Z,87.50
2018-03-22T09:48:20.815Z,87.41
2018-03-22T09:50:48.937Z,87.36
2018-03-22T09:53:18.362Z,87.34
2018-03-22T09:55:46.472Z,87.27
2018-03-22T09:58:14.587Z,87.30
2018-03-22T10:00:42.751Z,87.28
2018-03-22T10:03:10.881Z,87.33
2018-03-22T10:05:38.986Z,87.27
2018-03-22T10:08:07.164Z,87.27
2018-03-22T10:10:35.244Z,87.17
2018-03-22T10:13:03.330Z,87.08
2018-03-22T10:15:31.464Z,87.09
2018-03-22T10:17:59.574Z,87.02
2018-03-22T10:20:27.698Z,87.03
2018-03-22T10:22:55.805Z,87.13
2018-03-22T10:25:23.904Z,87.15
2018-03-22T10:27:52.032Z,87.19
2018-03-22T10:30:21.413Z,87.17
2018-03-22T10:32:49.975Z,87.10
2018-03-22T10:35:18.087Z,86.93
2018-03-22T10:37:46.205Z,86.69
2018-03-22T10:40:14.304Z,86.53
2018-03-22T10:42:42.501Z,86.33
2018-03-22T10:45:10.571Z,86.11
2018-03-22T10:47:38.666Z,86.20
2018-03-22T10:50:06.803Z,86.23
2018-03-22T10:52:34.952Z,86.23
2018-03-22T10:55:03.304Z,86.32
2018-03-22T10:57:31.435Z,86.42
2018-03-22T10:59:59.548Z,86.40
2018-03-22T11:02:34.049Z,86.14
2018-03-22T11:05:02.123Z,86.05
2018-03-22T11:07:31.188Z,85.90
2018-03-22T11:09:59.274Z,85.68
2018-03-22T11:12:27.370Z,85.34
2018-03-22T11:14:55.488Z,85.37
2018-03-22T11:17:23.598Z,85.45
2018-03-22T11:19:52.288Z,85.33
2018-03-22T11:22:20.400Z,85.01
2018-03-22T11:24:48.490Z,84.89
2018-03-22T11:27:16.890Z,84.76
2018-03-22T11:29:45.011Z,84.42
2018-03-22T11:32:13.107Z,84.22
2018-03-22T11:34:41.235Z,83.96
2018-03-22T11:37:09.331Z,83.70
2018-03-22T11:39:37.430Z,83.62
2018-03-22T11:42:05.548Z,83.52
2018-03-22T11:44:33.657Z,83.35
2018-03-22T11:47:01.765Z,83.22
2018-03-22T11:49:29.874Z,82.89
2018-03-22T11:51:57.978Z,82.60
2018-03-22T11:54:26.091Z,82.54
2018-03-22T12:09:54.203Z,81.63
2018-03-22T12:12:22.768Z,81.23
2018-03-22T12:14:50.880Z,80.66
2018-03-22T12:17:19.619Z,80.35
2018-03-22T12:19:47.782Z,80.62
2018-03-22T12:22:15.969Z,80.16
2018-03-22T12:24:44.087Z,79.93
2018-03-22T12:27:13.090Z,79.55
2018-03-22T12:29:41.203Z,79.06
2018-03-22T12:32:09.468Z,79.47
2018-03-22T12:34:37.569Z,79.49
2018-03-22T12:37:05.950Z,79.71
2018-03-22T12:39:34.023Z,78.64
2018-03-22T12:42:03.495Z,78.77
2018-03-22T12:44:31.619Z,78.74
2018-03-22T12:47:00.084Z,78.77
2018-03-22T12:49:28.171Z,78.80
2018-03-22T12:51:57.241Z,78.70
2018-03-22T12:54:25.430Z,78.83
2018-03-22T12:56:53.543Z,78.71
2018-03-22T12:59:24.319Z,78.39
2018-03-22T13:01:52.423Z,78.12
2018-03-22T13:04:20.518Z,77.84
2018-03-22T13:06:49.155Z,77.84
2018-03-22T13:09:17.265Z,78.16
2018-03-22T13:11:45.398Z,77.85
2018-03-22T13:27:13.521Z,76.95
2018-03-22T13:29:47.213Z,76.56
2018-03-22T13:32:15.309Z,76.66
2018-03-22T13:34:43.437Z,76.83
2018-03-22T13:37:11.530Z,76.77
2018-03-22T13:39:39.976Z,76.85
2018-03-22T13:42:08.078Z,76.70
2018-03-22T13:44:36.168Z,75.96
2018-03-22T13:47:04.282Z,76.30
2018-03-22T13:49:32.415Z,76.56
2018-03-22T13:52:00.504Z,76.54
2018-03-22T13:54:29.287Z,76.45
2018-03-22T13:56:57.995Z,76.60
2018-03-22T13:59:26.245Z,76.57
2018-03-22T14:01:54.341Z,76.98
2018-03-22T14:04:22.487Z,76.66
2018-03-22T14:06:51.335Z,76.60
2018-03-22T14:09:19.475Z,76.28
2018-03-22T14:11:47.602Z,76.57
2018-03-22T14:14:15.691Z,76.85
2018-03-22T14:16:43.788Z,76.59
2018-03-22T14:19:11.936Z,76.44
2018-03-22T14:21:40.117Z,76.73
2018-03-22T14:24:08.582Z,76.84
2018-03-22T14:26:36.703Z,77.18
2018-03-22T14:29:04.787Z,77.49
2018-03-22T14:31:32.917Z,77.56
2018-03-22T14:34:01.348Z,77.47
2018-03-22T14:36:29.462Z,77.72
2018-03-22T14:38:57.990Z,77.88
2018-03-22T14:41:26.093Z,77.89
2018-03-22T14:43:54.200Z,78.01
2018-03-22T14:46:22.319Z,78.24
2018-03-22T14:48:50.410Z,78.72
2018-03-22T14:51:18.526Z,79.32
2018-03-22T14:53:46.630Z,79.62
2018-03-22T14:56:15.031Z,79.89
2018-03-22T14:58:43.142Z,80.01
2018-03-22T15:01:11.256Z,80.11
2018-03-22T15:03:39.356Z,80.04
2018-03-22T15:06:07.482Z,80.13
2018-03-22T15:08:35.627Z,79.97
2018-03-22T15:11:03.714Z,80.18
2018-03-22T15:13:31.810Z,79.87
2018-03-22T15:15:59.928Z,79.90
2018-03-22T15:18:28.023Z,79.89
2018-03-22T15:20:56.189Z,79.87
2018-03-22T15:23:24.330Z,80.07
2018-03-22T15:25:53.902Z,79.82
2018-03-22T15:28:22.051Z,79.91
2018-03-22T15:30:50.572Z,79.86
2018-03-22T15:33:18.754Z,80.09
2018-03-22T15:35:46.900Z,80.19
2018-03-22T15:38:15.616Z,80.26
2018-03-22T15:40:43.708Z,80.23
2018-03-22T15:43:11.801Z,80.49
2018-03-22T15:45:40.230Z,80.63
2018-03-22T15:48:08.343Z,80.40
2018-03-22T15:50:36.468Z,79.94
2018-03-22T15:53:04.584Z,79.97
2018-03-22T15:55:32.675Z,79.77
2018-03-22T15:58:00.790Z,79.83
2018-03-22T16:00:29.005Z,79.83
2018-03-22T16:02:57.089Z,79.79
2018-03-22T16:05:26.167Z,79.48
2018-03-22T16:07:54.256Z,79.53
2018-03-22T16:10:22.686Z,79.63
2018-03-22T16:12:50.821Z,79.58
2018-03-22T16:15:19.788Z,79.52
2018-03-22T16:17:47.888Z,79.32
2018-03-22T16:20:16.100Z,79.10
2018-03-22T16:22:45.233Z,79.11
2018-03-22T16:25:13.326Z,79.04
2018-03-22T16:27:41.423Z,78.89
2018-03-22T16:30:10.495Z,78.70
2018-03-22T16:32:38.597Z,78.67
2018-03-22T16:35:06.702Z,78.62
2018-03-22T16:37:34.809Z,78.09
2018-03-22T16:40:02.922Z,78.05
2018-03-22T16:42:31.064Z,78.15
2018-03-22T16:45:00.121Z,78.40
2018-03-22T16:47:28.312Z,78.24
2018-03-22T16:49:56.411Z,78.02
2018-03-22T16:52:24.546Z,78.08
2018-03-22T16:54:57.601Z,78.04
2018-03-22T16:57:26.025Z,78.06
2018-03-22T16:59:54.168Z,77.81
2018-03-22T17:02:22.281Z,77.68
2018-03-22T17:04:50.466Z,77.39
2018-03-22T17:07:18.555Z,77.61
2018-03-22T17:09:46.690Z,77.22
2018-03-22T17:12:14.792Z,77.47
2018-03-22T17:14:42.894Z,77.27
2018-03-22T17:17:10.995Z,77.47
2018-03-22T17:19:39.122Z,77.37
2018-03-22T17:22:07.226Z,77.30
2018-03-22T17:24:35.466Z,77.43
2018-03-22T17:27:03.551Z,77.24
2018-03-22T17:39:16.662Z,77.27
2018-03-22T17:41:45.765Z,77.79
2018-03-22T17:44:13.855Z,77.33
2018-03-22T17:46:41.987Z,76.98
2018-03-22T17:49:10.092Z,77.17
2018-03-22T17:51:38.189Z,77.42
2018-03-22T17:54:06.632Z,77.02
2018-03-22T17:56:34.721Z,76.84
2018-03-22T17:59:02.865Z,77.18
2018-03-22T18:01:30.970Z,76.80
2018-03-22T18:03:59.112Z,76.87
2018-03-22T18:06:27.205Z,76.51
2018-03-22T18:08:55.291Z,76.88
2018-03-22T18:11:24.429Z,76.73
2018-03-22T18:13:52.536Z,76.91
2018-03-22T18:16:20.636Z,76.94
2018-03-22T18:18:49.132Z,77.28
2018-03-22T18:21:18.131Z,76.94
2018-03-22T18:23:46.265Z,77.26
2018-03-22T18:26:14.431Z,76.80
2018-03-22T18:28:43.577Z,76.62
2018-03-22T18:31:11.661Z,76.70
2018-03-22T18:33:39.845Z,76.54
2018-03-22T18:36:07.994Z,76.52
2018-03-22T18:38:36.062Z,76.78
2018-03-22T18:41:05.033Z,76.79
2018-03-22T18:43:33.172Z,76.73
2018-03-22T18:46:01.268Z,76.78
2018-03-22T18:48:30.205Z,76.79
2018-03-22T18:50:58.320Z,76.73
2018-03-22T18:53:26.657Z,76.89
2018-03-22T18:55:54.817Z,77.25
2018-03-22T18:58:22.918Z,76.82
2018-03-22T19:00:51.013Z,76.84
2018-03-22T19:03:19.126Z,76.98
2018-03-22T19:05:47.214Z,77.00
2018-03-22T19:08:15.314Z,76.94
2018-03-22T19:10:43.453Z,76.72
2018-03-22T19:13:11.577Z,76.63
2018-03-22T19:15:39.705Z,76.75
2018-03-22T19:18:07.791Z,76.87
2018-03-22T19:20:35.921Z,76.57
2018-03-22T19:23:04.045Z,76.65
2018-03-22T19:25:32.151Z,76.53
2018-03-22T19:28:00.251Z,76.92
2018-03-22T19:30:28.371Z,76.48
2018-03-22T19:42:41.480Z,77.85
2018-03-22T19:45:09.582Z,78.18
2018-03-22T19:47:37.677Z,78.38
2018-03-22T19:50:05.848Z,78.39
2018-03-22T19:52:33.958Z,78.64
2018-03-22T19:55:02.197Z,78.85
2018-03-22T19:57:31.496Z,79.10
2018-03-22T19:59:59.908Z,79.24
2018-03-22T20:02:28.039Z,79.49
2018-03-22T20:04:56.104Z,79.97
2018-03-22T20:07:25.021Z,79.89
2018-03-22T20:09:53.179Z,80.13
2018-03-22T20:12:21.294Z,80.30
2018-03-22T20:14:49.393Z,80.44
2018-03-22T20:17:17.524Z,80.74
2018-03-22T20:19:45.634Z,81.04
2018-03-22T20:22:13.752Z,81.12
2018-03-22T20:24:41.918Z,81.11
2018-03-22T20:27:10.019Z,81.31
2018-03-22T20:29:38.842Z,81.34
2018-03-22T20:32:07.003Z,81.85
2018-03-22T20:34:35.129Z,82.22
2018-03-22T20:37:03.210Z,82.34
2018-03-22T20:39:31.326Z,82.19
2018-03-22T20:41:59.430Z,82.16
2018-03-22T20:44:27.571Z,82.28
2018-03-22T20:46:55.667Z,82.06
2018-03-22T20:49:23.943Z,82.18
2018-03-22T20:51:52.036Z,82.35
2018-03-22T20:54:20.183Z,82.22
2018-03-22T20:56:48.917Z,82.42
2018-03-22T20:59:17.043Z,82.20
2018-03-22T21:01:45.150Z,82.23
2018-03-22T21:04:13.317Z,82.20
2018-03-22T21:06:41.414Z,82.27
2018-03-22T21:09:10.402Z,82.30
2018-03-22T21:11:38.516Z,82.55
2018-03-22T21:14:06.630Z,82.59
2018-03-22T21:16:34.740Z,82.61
2018-03-22T21:19:02.875Z,82.63
2018-03-22T21:21:31.129Z,82.70
2018-03-22T21:23:59.213Z,82.76
2018-03-22T21:26:27.379Z,82.90
2018-03-22T21:28:55.531Z,83.09
2018-03-22T21:31:24.418Z,82.96
2018-03-22T21:33:57.529Z,82.87
2018-03-22T21:36:25.636Z,82.83
2018-03-22T21:38:53.755Z,82.85
2018-03-22T21:41:22.696Z,82.83
2018-03-22T21:44:02.574Z,82.91
2018-03-22T21:46:30.715Z,82.93
2018-03-22T21:48:58.828Z,82.77
2018-03-22T21:51:29.084Z,82.96
2018-03-22T21:53:58.130Z,82.86
2018-03-22T21:56:26.256Z,82.71
2018-03-22T21:58:54.721Z,82.81
2018-03-22T22:01:22.822Z,82.91
2018-03-22T22:03:50.926Z,82.87
2018-03-22T22:06:19.030Z,82.95
2018-03-22T22:08:47.142Z,83.08
2018-03-22T22:11:16.155Z,83.07
2018-03-22T22:13:44.272Z,82.92
2018-03-22T22:16:12.422Z,82.69
2018-03-22T22:18:40.522Z,82.54
2018-03-22T22:21:08.972Z,82.33
2018-03-22T22:23:37.066Z,82.11
2018-03-22T22:26:05.193Z,81.92
2018-03-22T22:28:34.244Z,81.91
2018-03-22T22:31:02.349Z,81.84
2018-03-22T22:33:30.441Z,81.70
2018-03-22T22:36:00.357Z,81.61
2018-03-22T22:38:29.144Z,81.48
2018-03-22T22:40:57.240Z,81.36
2018-03-22T22:43:25.376Z,81.36
2018-03-22T22:45:53.550Z,81.28
2018-03-22T22:48:21.694Z,80.95
2018-03-22T22:50:49.807Z,81.02
2018-03-22T22:53:18.283Z,81.28
2018-03-22T22:55:46.382Z,81.22
2018-03-22T22:58:14.498Z,81.15
2018-03-22T23:00:42.914Z,80.99
2018-03-22T23:03:10.982Z,81.03
2018-03-22T23:05:39.632Z,80.72
2018-03-22T23:08:07.826Z,80.57
2018-03-22T23:10:36.732Z,80.45
2018-03-22T23:13:10.294Z,80.39
2018-03-22T23:15:39.287Z,80.56
2018-03-22T23:18:07.774Z,80.56
2018-03-22T23:20:36.690Z,80.35
2018-03-22T23:23:04.940Z,80.08
2018-03-22T23:25:33.652Z,79.80
2018-03-22T23:28:01.824Z,79.56
2018-03-22T23:30:29.980Z,79.57
2018-03-22T23:32:58.076Z,79.82
2018-03-22T23:35:26.286Z,79.61
2018-03-22T23:37:54.609Z,79.23
2018-03-22T23:40:22.771Z,79.31
2018-03-22T23:42:50.886Z,79.34
2018-03-22T23:45:18.978Z,79.59
2018-03-22T23:47:47.530Z,79.71
2018-03-22T23:50:15.643Z,79.71
2018-03-22T23:52:44.030Z,79.68
2018-03-22T23:55:12.915Z,79.58
2018-03-22T23:57:41.022Z,79.74
